createdAt,value
2023-05-12T00:01:14.982Z,6.10
2023-05-12T00:03:42.556Z,6.00
2023-05-12T00:06:09.869Z,5.68
2023-05-12T00:08:37.461Z,5.80
2023-05-12T00:11:04.906Z,5.93
2023-05-12T00:13:32.463Z,5.85
2023-05-12T00:15:59.817Z,6.63
2023-05-12T00:18:28.937Z,5.40
2023-05-12T00:20:57.350Z,5.63
2023-05-12T00:23:25.753Z,6.50
2023-05-12T00:25:54.300Z,5.47
2023-05-12T00:28:21.706Z,5.70
2023-05-12T00:30:50.504Z,5.93
2023-05-12T00:33:18.141Z,5.60
2023-05-12T00:35:46.142Z,5.57
2023-05-12T00:38:14.147Z,5.45
2023-05-12T00:40:41.629Z,5.60
2023-05-12T00:43:09.028Z,5.18
2023-05-12T00:45:37.076Z,5.57
2023-05-12T00:48:06.615Z,6.20
2023-05-12T00:50:34.778Z,5.53
2023-05-12T00:53:02.420Z,5.68
2023-05-12T00:55:31.754Z,5.38
2023-05-12T00:57:59.940Z,5.85
2023-05-12T01:00:33.506Z,5.80
2023-05-12T01:03:00.987Z,5.78
2023-05-12T01:05:43.136Z,6.03
2023-05-12T01:08:11.915Z,5.70
2023-05-12T01:10:44.918Z,6.18
2023-05-12T01:13:12.309Z,5.85
2023-05-12T01:15:52.057Z,5.68
2023-05-12T01:18:22.044Z,6.18
2023-05-12T01:20:50.632Z,6.82
2023-05-12T01:23:20.259Z,6.15
2023-05-12T01:25:50.547Z,6.25
2023-05-12T01:28:19.945Z,6.55
2023-05-12T01:30:49.208Z,6.38
2023-05-12T01:33:18.737Z,6.85
2023-05-12T01:35:45.927Z,6.95
2023-05-12T01:38:13.464Z,7.63
2023-05-12T01:40:40.943Z,8.02
2023-05-12T01:43:08.309Z,6.85
2023-05-12T01:45:35.825Z,6.70
2023-05-12T01:48:03.389Z,6.65
2023-05-12T01:50:30.797Z,7.10
2023-05-12T01:52:59.296Z,7.00
2023-05-12T01:55:27.742Z,6.78
2023-05-12T01:57:56.154Z,5.78
2023-05-12T02:00:23.837Z,6.40
2023-05-12T02:02:51.073Z,6.35
2023-05-12T02:05:18.825Z,6.82
2023-05-12T02:07:53.102Z,6.55
2023-05-12T02:10:21.035Z,6.35
2023-05-12T02:12:48.857Z,6.20
2023-05-12T02:15:16.081Z,6.35
2023-05-12T02:17:43.621Z,6.78
2023-05-12T02:20:12.632Z,6.75
2023-05-12T02:22:40.111Z,6.53
2023-05-12T02:25:08.094Z,6.38
2023-05-12T02:27:47.888Z,6.68
2023-05-12T02:30:15.977Z,6.47
2023-05-12T02:32:43.260Z,6.28
2023-05-12T02:35:11.899Z,6.97
2023-05-12T02:37:39.258Z,6.90
2023-05-12T02:40:08.245Z,6.25
2023-05-12T02:42:35.893Z,7.05
2023-05-12T02:45:04.242Z,6.75
2023-05-12T02:47:33.750Z,6.18
2023-05-12T02:50:01.105Z,6.65
2023-05-12T02:52:29.840Z,7.15
2023-05-12T02:54:58.039Z,6.80
2023-05-12T02:57:27.820Z,6.55
2023-05-12T02:59:56.164Z,6.50
2023-05-12T03:02:23.321Z,6.85
2023-05-12T03:04:50.888Z,7.03
2023-05-12T03:07:18.484Z,7.22
2023-05-12T03:09:45.861Z,8.18
2023-05-12T03:12:14.449Z,6.95
2023-05-12T03:14:41.904Z,7.13
2023-05-12T03:17:09.628Z,6.93
2023-05-12T03:19:36.883Z,6.97
2023-05-12T03:22:07.747Z,7.00
2023-05-12T03:24:35.914Z,7.38
2023-05-12T03:27:04.404Z,7.80
2023-05-12T03:29:32.191Z,7.18
2023-05-12T03:32:01.396Z,7.70
2023-05-12T03:34:28.892Z,6.88
2023-05-12T03:37:02.508Z,7.15
2023-05-12T03:39:31.067Z,6.75
2023-05-12T03:41:59.344Z,7.07
2023-05-12T03:44:26.913Z,6.80
2023-05-12T03:46:54.392Z,8.25
2023-05-12T03:49:22.754Z,8.95
2023-05-12T03:51:50.300Z,8.73
2023-05-12T03:54:17.882Z,11.90
2023-05-12T03:56:45.223Z,12.77
2023-05-12T03:59:12.678Z,14.35
2023-05-12T04:01:40.178Z,12.98
2023-05-12T04:04:09.648Z,14.73
2023-05-12T04:06:37.342Z,11.20
2023-05-12T04:09:04.901Z,8.20
2023-05-12T04:11:32.532Z,7.80
2023-05-12T04:14:01.941Z,7.82
2023-05-12T04:16:29.489Z,7.13
2023-05-12T04:18:57.762Z,7.75
2023-05-12T04:21:26.985Z,8.35
2023-05-12T04:23:54.498Z,7.40
2023-05-12T04:26:23.967Z,7.43
2023-05-12T04:28:53.683Z,7.70
2023-05-12T04:31:22.013Z,7.25
2023-05-12T04:33:50.046Z,7.88
2023-05-12T04:36:18.434Z,7.88
2023-05-12T04:38:46.135Z,7.72
2023-05-12T04:41:13.220Z,7.68
2023-05-12T04:46:10.784Z,7.80
2023-05-12T04:48:42.242Z,7.82
2023-05-12T04:51:10.071Z,7.88
2023-05-12T04:53:38.380Z,7.45
2023-05-12T04:56:06.864Z,7.78
2023-05-12T04:58:35.344Z,8.25
2023-05-12T05:01:02.734Z,7.43
2023-05-12T05:03:30.403Z,8.23
2023-05-12T05:05:58.764Z,8.38
2023-05-12T05:08:28.456Z,8.23
2023-05-12T05:10:55.710Z,8.52
2023-05-12T05:13:24.164Z,7.90
2023-05-12T05:15:55.093Z,8.13
2023-05-12T05:18:24.399Z,8.07
2023-05-12T05:20:57.809Z,8.45
2023-05-12T05:23:26.641Z,7.90
2023-05-12T05:25:54.149Z,8.43
2023-05-12T05:28:22.787Z,8.80
2023-05-12T05:30:50.153Z,8.13
2023-05-12T05:33:17.496Z,8.45
2023-05-12T05:35:45.904Z,8.35
2023-05-12T05:38:13.613Z,8.10
2023-05-12T05:40:52.028Z,8.23
2023-05-12T05:43:19.822Z,8.73
2023-05-12T05:45:50.137Z,8.18
2023-05-12T05:48:24.293Z,7.97
2023-05-12T05:50:52.944Z,8.30
2023-05-12T05:53:21.423Z,8.25
2023-05-12T05:55:52.068Z,8.15
2023-05-12T05:58:19.254Z,7.85
2023-05-12T06:00:47.163Z,8.27
2023-05-12T06:03:14.762Z,8.10
2023-05-12T06:05:44.412Z,8.90
2023-05-12T06:08:13.748Z,7.97
2023-05-12T06:10:43.861Z,9.23
2023-05-12T06:13:12.426Z,8.90
2023-05-12T06:15:45.868Z,8.85
2023-05-12T06:18:14.292Z,8.95
2023-05-12T06:20:42.691Z,8.43
2023-05-12T06:23:10.252Z,8.32
2023-05-12T06:25:38.598Z,8.30
2023-05-12T06:28:06.195Z,8.52
2023-05-12T06:30:35.723Z,8.18
2023-05-12T06:33:03.174Z,7.80
2023-05-12T06:35:30.477Z,7.68
2023-05-12T06:37:58.110Z,8.32
2023-05-12T06:40:25.432Z,7.60
2023-05-12T06:42:55.018Z,7.68
2023-05-12T06:45:23.972Z,7.72
2023-05-12T06:47:58.044Z,7.35
2023-05-12T06:50:25.567Z,8.50
2023-05-12T06:52:54.002Z,7.75
2023-05-12T06:55:22.329Z,8.20
2023-05-12T06:57:55.936Z,7.38
2023-05-12T07:00:25.176Z,8.25
2023-05-12T07:02:53.133Z,8.48
2023-05-12T07:05:21.514Z,8.05
2023-05-12T07:07:55.145Z,8.20
2023-05-12T07:10:22.692Z,8.20
2023-05-12T07:12:50.122Z,8.88
2023-05-12T07:15:17.548Z,8.73
2023-05-12T07:17:46.164Z,7.63
2023-05-12T07:20:25.780Z,8.27
2023-05-12T07:22:55.144Z,8.80
2023-05-12T07:25:22.993Z,8.02
2023-05-12T07:27:56.960Z,7.75
2023-05-12T07:32:53.355Z,7.28
2023-05-12T07:35:21.022Z,7.40
2023-05-12T07:37:48.972Z,6.93
2023-05-12T07:40:16.278Z,6.90
2023-05-12T07:42:43.636Z,6.68
2023-05-12T07:45:12.250Z,6.75
2023-05-12T07:47:42.332Z,10.38
2023-05-12T07:50:09.672Z,6.18
2023-05-12T07:52:47.421Z,6.00
2023-05-12T07:55:15.878Z,6.50
2023-05-12T07:57:43.829Z,5.88
2023-05-12T08:00:11.902Z,5.15
2023-05-12T08:02:39.326Z,5.40
2023-05-12T08:05:07.783Z,5.88
2023-05-12T08:07:34.863Z,6.50
2023-05-12T08:10:03.030Z,6.43
2023-05-12T08:12:31.646Z,5.65
2023-05-12T08:15:00.593Z,5.57
2023-05-12T08:17:29.294Z,5.97
2023-05-12T08:19:57.148Z,5.40
2023-05-12T08:22:24.438Z,6.30
2023-05-12T08:24:53.141Z,6.07
2023-05-12T08:27:21.472Z,6.10
2023-05-12T08:29:48.861Z,5.47
2023-05-12T08:32:16.845Z,4.88
2023-05-12T08:34:44.350Z,5.35
2023-05-12T08:37:12.858Z,5.22
2023-05-12T08:39:41.622Z,5.35
2023-05-12T08:42:27.263Z,4.90
2023-05-12T08:44:55.200Z,4.65
2023-05-12T08:47:25.180Z,4.97
2023-05-12T08:50:03.718Z,4.63
2023-05-12T08:52:34.013Z,4.40
2023-05-12T08:55:03.457Z,4.40
2023-05-12T08:57:32.010Z,4.60
2023-05-12T09:00:02.171Z,4.15
2023-05-12T09:02:44.764Z,4.25
2023-05-12T09:05:18.890Z,4.13
2023-05-12T09:07:50.092Z,5.13
2023-05-12T09:10:33.704Z,4.95
2023-05-12T09:13:18.059Z,4.97
2023-05-12T09:15:47.814Z,3.97
2023-05-12T09:18:17.923Z,3.53
2023-05-12T09:20:45.470Z,3.88
2023-05-12T09:23:20.799Z,3.30
2023-05-12T09:26:03.284Z,3.08
2023-05-12T09:28:39.059Z,3.45
2023-05-12T09:31:20.003Z,3.20
2023-05-12T09:33:47.499Z,3.13
2023-05-12T09:36:24.953Z,3.08
2023-05-12T09:39:08.302Z,3.25
2023-05-12T09:41:43.492Z,2.42
2023-05-12T09:44:14.952Z,2.70
2023-05-12T09:46:42.532Z,2.65
2023-05-12T09:49:12.001Z,2.70
2023-05-12T09:51:41.223Z,2.22
2023-05-12T09:54:25.242Z,2.30
2023-05-12T09:59:24.390Z,2.50
2023-05-12T10:01:52.240Z,2.40
2023-05-12T10:04:21.305Z,2.22
2023-05-12T10:06:49.475Z,2.65
2023-05-12T10:09:24.270Z,2.75
2023-05-12T10:11:53.949Z,2.50
2023-05-12T10:14:23.091Z,2.28
2023-05-12T10:16:50.665Z,2.25
2023-05-12T10:19:19.508Z,2.70
2023-05-12T10:21:47.600Z,2.95
2023-05-12T10:24:18.193Z,2.35
2023-05-12T10:26:45.763Z,2.78
2023-05-12T10:29:14.760Z,2.65
2023-05-12T10:31:45.505Z,2.38
2023-05-12T10:34:21.924Z,2.70
2023-05-12T10:36:52.627Z,2.55
2023-05-12T10:39:20.319Z,2.60
2023-05-12T10:41:47.453Z,2.60
2023-05-12T10:44:14.588Z,2.58
2023-05-12T10:46:42.672Z,2.85
2023-05-12T10:49:13.378Z,2.90
2023-05-12T10:51:43.867Z,2.50
2023-05-12T10:54:13.390Z,2.92
2023-05-12T10:56:45.244Z,2.90
2023-05-12T10:59:22.004Z,2.80
2023-05-12T11:02:06.784Z,2.50
2023-05-12T11:04:58.486Z,2.45
2023-05-12T11:07:31.124Z,2.38
2023-05-12T11:10:05.897Z,2.50
2023-05-12T11:12:38.376Z,2.80
2023-05-12T11:15:07.211Z,2.85
2023-05-12T11:17:41.223Z,2.50
2023-05-12T11:20:12.317Z,2.47
2023-05-12T11:22:41.615Z,2.60
2023-05-12T11:25:14.987Z,2.78
2023-05-12T11:27:51.763Z,2.30
2023-05-12T11:30:20.110Z,2.53
2023-05-12T11:33:00.010Z,2.38
2023-05-12T11:35:31.833Z,2.33
2023-05-12T11:37:59.020Z,2.55
2023-05-12T11:40:27.620Z,3.40
2023-05-12T11:42:59.506Z,2.20
2023-05-12T11:45:30.874Z,2.80
2023-05-12T11:48:18.480Z,2.40
2023-05-12T11:50:50.096Z,3.35
2023-05-12T11:53:19.616Z,3.05
2023-05-12T11:55:55.555Z,2.95
2023-05-12T11:58:30.850Z,2.83
2023-05-12T12:01:12.975Z,2.88
2023-05-12T12:03:49.260Z,2.90
2023-05-12T12:06:17.028Z,2.90
2023-05-12T12:09:00.280Z,2.47
2023-05-12T12:11:28.731Z,2.60
2023-05-12T12:13:59.564Z,2.40
2023-05-12T12:16:28.822Z,2.67
2023-05-12T12:18:56.944Z,2.53
2023-05-12T12:21:27.430Z,2.65
2023-05-12T12:23:54.743Z,2.25
2023-05-12T12:26:23.428Z,2.67
2023-05-12T12:28:52.155Z,2.53
2023-05-12T12:31:19.800Z,2.40
2023-05-12T12:33:47.070Z,2.28
2023-05-12T12:36:16.662Z,2.30
2023-05-12T12:38:43.957Z,2.60
2023-05-12T12:41:13.975Z,2.40
2023-05-12T12:43:43.490Z,2.85
2023-05-12T12:46:11.136Z,2.38
2023-05-12T12:48:38.509Z,2.83
2023-05-12T12:51:06.504Z,2.60
2023-05-12T12:53:34.811Z,2.80
2023-05-12T12:56:02.080Z,2.30
2023-05-12T12:58:29.841Z,2.45
2023-05-12T13:00:57.560Z,2.40
2023-05-12T13:03:24.775Z,2.30
2023-05-12T13:05:52.670Z,2.17
2023-05-12T13:08:21.442Z,2.70
2023-05-12T13:10:48.968Z,2.40
2023-05-12T13:13:16.387Z,2.40
2023-05-12T13:15:46.050Z,2.88
2023-05-12T13:18:13.317Z,2.65
2023-05-12T13:20:41.035Z,2.70
2023-05-12T13:23:09.306Z,2.55
2023-05-12T13:25:37.018Z,2.78
2023-05-12T13:28:10.520Z,2.53
2023-05-12T13:30:38.143Z,2.30
2023-05-12T13:33:06.116Z,2.30
2023-05-12T13:35:33.905Z,2.50
2023-05-12T13:38:01.142Z,2.30
2023-05-12T13:40:29.724Z,2.88
2023-05-12T13:42:57.176Z,2.50
2023-05-12T13:45:24.870Z,2.50
2023-05-12T13:47:52.544Z,2.42
2023-05-12T13:50:20.039Z,2.35
2023-05-12T13:52:48.608Z,2.50
2023-05-12T13:55:20.758Z,2.58
2023-05-12T13:57:50.008Z,2.30
2023-05-12T14:00:18.905Z,2.45
2023-05-12T14:02:46.119Z,2.83
2023-05-12T14:05:13.597Z,2.40
2023-05-12T14:07:42.834Z,2.53
2023-05-12T14:10:11.089Z,2.47
2023-05-12T14:12:42.803Z,2.63
2023-05-12T14:15:24.063Z,2.80
2023-05-12T14:17:59.539Z,2.45
2023-05-12T14:20:26.826Z,2.40
2023-05-12T14:22:54.443Z,2.80
2023-05-12T14:25:22.064Z,2.70
2023-05-12T14:27:49.718Z,2.88
2023-05-12T14:30:18.212Z,2.70
2023-05-12T14:32:45.777Z,2.40
2023-05-12T14:35:13.502Z,2.80
2023-05-12T14:37:42.231Z,3.10
2023-05-12T14:40:15.773Z,2.50
2023-05-12T14:45:12.649Z,2.50
2023-05-12T14:47:40.054Z,2.28
2023-05-12T14:50:09.172Z,2.42
2023-05-12T14:52:38.772Z,2.38
2023-05-12T14:55:12.027Z,2.70
2023-05-12T14:57:40.473Z,2.42
2023-05-12T15:00:11.130Z,2.30
2023-05-12T15:02:39.273Z,2.17
2023-05-12T15:05:08.634Z,2.00
2023-05-12T15:07:37.077Z,2.30
2023-05-12T15:10:06.159Z,2.03
2023-05-12T15:12:34.879Z,2.15
2023-05-12T15:15:11.870Z,2.30
2023-05-12T15:17:39.621Z,2.40
2023-05-12T15:20:08.288Z,2.42
2023-05-12T15:22:35.941Z,2.50
2023-05-12T15:25:04.804Z,2.47
2023-05-12T15:27:35.686Z,2.42
2023-05-12T15:30:04.543Z,2.45
2023-05-12T15:32:32.094Z,2.50
2023-05-12T15:35:00.500Z,2.67
2023-05-12T15:37:28.116Z,2.45
2023-05-12T15:39:57.420Z,2.40
2023-05-12T15:42:29.941Z,2.33
2023-05-12T15:45:00.587Z,2.30
2023-05-12T15:47:28.188Z,2.45
2023-05-12T15:49:55.429Z,2.08
2023-05-12T15:52:23.325Z,2.40
2023-05-12T15:54:50.816Z,2.35
2023-05-12T15:57:18.520Z,2.13
2023-05-12T15:59:46.633Z,2.20
2023-05-12T16:02:13.854Z,2.70
2023-05-12T16:04:41.071Z,2.60
2023-05-12T16:07:08.169Z,2.70
2023-05-12T16:09:35.464Z,2.70
2023-05-12T16:12:03.097Z,3.03
2023-05-12T16:14:30.772Z,3.00
2023-05-12T16:16:58.253Z,2.97
2023-05-12T16:19:28.102Z,2.90
2023-05-12T16:21:58.091Z,3.00
2023-05-12T16:24:28.708Z,3.13
2023-05-12T16:26:56.699Z,2.83
2023-05-12T16:29:25.308Z,2.75
2023-05-12T16:31:54.103Z,3.10
2023-05-12T16:34:21.865Z,2.97
2023-05-12T16:36:49.203Z,3.00
2023-05-12T16:39:16.457Z,2.80
2023-05-12T16:41:44.180Z,2.95
2023-05-12T16:44:11.457Z,2.70
2023-05-12T16:46:40.794Z,3.20
2023-05-12T16:49:08.878Z,2.70
2023-05-12T16:51:37.259Z,2.85
2023-05-12T16:54:04.839Z,3.10
2023-05-12T16:56:33.209Z,2.85
2023-05-12T16:59:01.728Z,3.22
2023-05-12T17:01:31.724Z,2.78
2023-05-12T17:03:59.497Z,3.30
2023-05-12T17:06:27.504Z,3.17
2023-05-12T17:08:56.043Z,2.53
2023-05-12T17:11:25.050Z,2.83
2023-05-12T17:13:53.925Z,2.78
2023-05-12T17:16:21.265Z,3.00
2023-05-12T17:21:20.600Z,2.80
2023-05-12T17:23:48.581Z,2.55
2023-05-12T17:26:16.125Z,2.88
2023-05-12T17:28:43.472Z,2.70
2023-05-12T17:31:11.315Z,2.70
2023-05-12T17:33:39.955Z,2.65
2023-05-12T17:36:12.783Z,2.75
2023-05-12T17:38:41.388Z,2.70
2023-05-12T17:41:08.750Z,2.78
2023-05-12T17:43:36.248Z,3.00
2023-05-12T17:46:05.152Z,2.70
2023-05-12T17:48:36.709Z,2.47
2023-05-12T17:51:04.906Z,2.65
2023-05-12T17:53:33.426Z,2.53
2023-05-12T17:56:00.854Z,2.92
2023-05-12T17:58:30.059Z,3.05
2023-05-12T18:00:57.672Z,2.85
2023-05-12T18:03:24.999Z,3.35
2023-05-12T18:05:54.575Z,2.80
2023-05-12T18:08:22.002Z,3.50
2023-05-12T18:10:49.410Z,3.67
2023-05-12T18:13:16.890Z,3.92
2023-05-12T18:15:46.320Z,3.30
2023-05-12T18:18:14.760Z,3.92
2023-05-12T18:20:42.560Z,3.65
2023-05-12T18:23:09.834Z,4.63
2023-05-12T18:25:43.426Z,4.60
2023-05-12T18:28:10.880Z,5.93
2023-05-12T18:30:38.314Z,5.97
2023-05-12T18:33:06.063Z,6.10
2023-05-12T18:35:34.131Z,4.35
2023-05-12T18:38:01.847Z,4.15
2023-05-12T18:40:29.186Z,4.80
2023-05-12T18:42:57.521Z,4.05
2023-05-12T18:45:25.077Z,4.60
2023-05-12T18:47:52.654Z,5.50
2023-05-12T18:50:20.951Z,5.00
2023-05-12T18:52:48.516Z,5.35
2023-05-12T18:55:18.215Z,4.88
2023-05-12T18:57:45.958Z,4.32
2023-05-12T19:00:13.836Z,5.18
2023-05-12T19:02:42.651Z,5.50
2023-05-12T19:05:10.777Z,5.10
2023-05-12T19:07:38.790Z,4.80
2023-05-12T19:10:06.727Z,4.55
2023-05-12T19:12:34.267Z,4.88
2023-05-12T19:15:01.933Z,4.50
2023-05-12T19:17:31.387Z,4.90
2023-05-12T19:20:01.305Z,5.38
2023-05-12T19:22:28.663Z,5.05
2023-05-12T19:24:56.238Z,4.57
2023-05-12T19:27:25.073Z,4.35
2023-05-12T19:29:52.935Z,4.93
2023-05-12T19:32:20.233Z,4.50
2023-05-12T19:34:51.226Z,5.07
2023-05-12T19:37:19.958Z,5.22
2023-05-12T19:39:47.360Z,5.07
2023-05-12T19:42:14.551Z,4.82
2023-05-12T19:44:44.202Z,4.75
2023-05-12T19:47:12.844Z,5.00
2023-05-12T19:49:40.037Z,4.68
2023-05-12T19:52:07.546Z,4.90
2023-05-12T19:54:34.825Z,4.70
2023-05-12T19:57:03.524Z,4.53
2023-05-12T19:59:31.764Z,4.80
2023-05-12T20:01:59.455Z,4.20
2023-05-12T20:04:27.493Z,4.75
2023-05-12T20:07:01.940Z,4.70
2023-05-12T20:09:31.409Z,4.47
2023-05-12T20:11:59.512Z,4.53
2023-05-12T20:14:27.802Z,4.60
2023-05-12T20:16:59.433Z,4.60
2023-05-12T20:19:33.991Z,4.35
2023-05-12T20:22:02.573Z,4.57
2023-05-12T20:24:30.023Z,4.32
2023-05-12T20:26:57.374Z,5.18
2023-05-12T20:29:30.095Z,5.45
2023-05-12T20:31:57.661Z,5.15
2023-05-12T20:34:25.892Z,4.95
2023-05-12T20:36:53.852Z,5.60
2023-05-12T20:39:21.278Z,5.82
2023-05-12T20:41:48.811Z,5.60
2023-05-12T20:44:16.308Z,5.43
2023-05-12T20:46:43.799Z,6.00
2023-05-12T20:49:11.104Z,5.45
2023-05-12T20:51:39.313Z,6.50
2023-05-12T20:54:06.682Z,6.65
2023-05-12T20:56:34.235Z,6.60
2023-05-12T20:59:01.805Z,6.38
2023-05-12T21:01:30.248Z,7.70
2023-05-12T21:03:57.876Z,7.30
2023-05-12T21:06:25.416Z,7.28
2023-05-12T21:08:53.661Z,7.70
2023-05-12T21:11:21.345Z,7.05
2023-05-12T21:13:48.613Z,7.63
2023-05-12T21:16:16.956Z,6.95
2023-05-12T21:18:44.478Z,7.88
2023-05-12T21:21:11.652Z,7.50
2023-05-12T21:23:39.213Z,7.95
2023-05-12T21:26:06.770Z,8.23
2023-05-12T21:28:34.103Z,8.35
2023-05-12T21:31:01.954Z,8.68
2023-05-12T21:33:31.609Z,8.10
2023-05-12T21:35:59.186Z,7.80
2023-05-12T21:38:27.518Z,7.60
2023-05-12T21:40:56.634Z,7.13
2023-05-12T21:43:23.914Z,7.30
2023-05-12T21:45:51.777Z,8.80
2023-05-12T21:48:19.740Z,10.07
2023-05-12T21:50:57.903Z,10.55
2023-05-12T21:53:25.715Z,10.43
2023-05-12T21:55:52.953Z,9.65
2023-05-12T21:58:20.467Z,9.48
2023-05-12T22:00:48.052Z,9.27
2023-05-12T22:03:15.300Z,9.35
2023-05-12T22:05:42.744Z,10.07
2023-05-12T22:08:10.210Z,9.68
2023-05-12T22:10:38.177Z,13.32
2023-05-12T22:13:05.749Z,11.60
2023-05-12T22:15:34.369Z,8.80
2023-05-12T22:18:08.875Z,9.00
2023-05-12T22:20:36.535Z,7.93
2023-05-12T22:23:04.179Z,7.20
2023-05-12T22:25:31.707Z,6.80
2023-05-12T22:27:59.188Z,6.75
2023-05-12T22:30:27.752Z,6.50
2023-05-12T22:32:55.176Z,6.88
2023-05-12T22:35:23.663Z,6.43
2023-05-12T22:37:51.130Z,6.70
2023-05-12T22:40:27.454Z,5.88
2023-05-12T22:42:54.747Z,6.20
2023-05-12T22:45:22.258Z,5.85
2023-05-12T22:47:49.721Z,5.95
2023-05-12T22:50:18.321Z,5.70
2023-05-12T22:52:45.594Z,5.97
2023-05-12T22:55:12.781Z,6.10
2023-05-12T22:57:43.970Z,5.88
2023-05-12T23:00:12.937Z,5.90
2023-05-12T23:02:40.101Z,6.25
2023-05-12T23:05:07.696Z,6.65
2023-05-12T23:07:34.946Z,6.45
2023-05-12T23:10:02.644Z,6.18
2023-05-12T23:12:29.841Z,5.60
2023-05-12T23:14:57.416Z,5.38
2023-05-12T23:17:24.764Z,5.63
2023-05-12T23:19:55.026Z,6.18
2023-05-12T23:22:22.363Z,5.90
2023-05-12T23:24:49.697Z,5.88
2023-05-12T23:27:17.096Z,6.20
2023-05-12T23:29:46.555Z,6.32
2023-05-12T23:32:14.243Z,5.72
2023-05-12T23:34:43.023Z,6.10
2023-05-12T23:37:10.693Z,7.10
2023-05-12T23:39:38.981Z,7.10
2023-05-12T23:42:06.735Z,6.68
2023-05-12T23:44:33.988Z,6.05
2023-05-12T23:47:01.405Z,7.07
2023-05-12T23:49:28.936Z,6.72
2023-05-12T23:51:56.427Z,6.10
2023-05-12T23:54:24.857Z,7.07
2023-05-12T23:56:52.267Z,6.68
2023-05-12T23:59:19.749Z,6.60
